Time;durP1;ratioP1;P1;durP2;ratioP2;P2;SDS_P1;SDS_P2;PMS_P1;PMS_P2;Temp;Humidity;BMP_temperature;BMP_pressure;BME280_temperature;BME280_humidity;BME280_pressure;Samples;Min_cycle;Max_cycle;Signal;HPM_P1;HPM_P2
2022/07/22 00:01:17;;;;;;;;;20.50;17.25;;;;;25.74;48.28;101379.41;5032448;28;68482;-36
2022/07/22 00:03:43;;;;;;;;;18.75;14.50;;;;;25.75;48.38;101383.81;5036595;28;45518;-36
2022/07/22 00:06:08;;;;;;;;;17.00;15.50;;;;;25.75;48.55;101383.81;5027667;28;52381;-36
2022/07/22 00:08:33;;;;;;;;;14.00;14.00;;;;;25.76;48.28;101382.84;5036934;28;45669;-36
2022/07/22 00:10:59;;;;;;;;;18.25;16.50;;;;;25.76;48.30;101385.53;5033936;28;46119;-36
2022/07/22 00:13:24;;;;;;;;;18.25;15.25;;;;;25.76;48.25;101377.50;5032227;28;45406;-36
2022/07/22 00:15:50;;;;;;;;;16.25;14.50;;;;;25.76;48.27;101377.50;5030731;28;45491;-36
2022/07/22 00:18:15;;;;;;;;;14.50;13.75;;;;;25.76;48.23;101371.25;5039817;28;45583;-36
2022/07/22 00:20:41;;;;;;;;;18.00;17.00;;;;;25.76;48.43;101371.25;5033906;28;70554;-37
2022/07/22 00:23:07;;;;;;;;;22.00;16.00;;;;;25.76;48.32;101366.78;5038668;28;45600;-36
2022/07/22 00:25:32;;;;;;;;;14.25;14.00;;;;;25.77;48.16;101378.34;5029099;28;45332;-37
2022/07/22 00:27:58;;;;;;;;;16.25;13.50;;;;;25.77;48.23;101368.44;5036998;28;45283;-36
2022/07/22 00:30:23;;;;;;;;;15.25;13.50;;;;;25.77;48.08;101365.78;5037092;28;50740;-36
2022/07/22 00:32:48;;;;;;;;;13.50;12.75;;;;;25.78;47.98;101366.63;5033914;28;45403;-36
2022/07/22 00:35:14;;;;;;;;;16.75;14.75;;;;;25.79;48.30;101356.75;5037980;28;45321;-37
2022/07/22 00:37:39;;;;;;;;;19.75;14.50;;;;;25.77;47.79;101363.09;5034765;28;45159;-37
2022/07/22 00:40:05;;;;;;;;;16.00;15.00;;;;;25.79;47.83;101359.44;5029024;28;59332;-36
2022/07/22 00:42:31;;;;;;;;;16.00;15.00;;;;;25.78;48.11;101358.56;5037161;28;45500;-37
2022/07/22 00:44:56;;;;;;;;;17.75;14.75;;;;;25.77;47.98;101348.84;5035905;28;45698;-37
2022/07/22 00:47:22;;;;;;;;;16.00;15.00;;;;;25.77;47.70;101357.72;5029366;28;45281;-37
2022/07/22 00:49:47;;;;;;;;;14.25;13.00;;;;;25.78;47.93;101350.53;5028127;28;45867;-37
2022/07/22 00:52:13;;;;;;;;;16.00;13.25;;;;;25.79;47.82;101348.72;5029102;28;45415;-36
2022/07/22 00:54:39;;;;;;;;;15.75;14.50;;;;;25.79;47.82;101346.03;5026325;28;45463;-37
2022/07/22 00:57:04;;;;;;;;;14.25;13.25;;;;;25.78;48.06;101337.13;5028982;28;45474;-35
2022/07/22 00:59:30;;;;;;;;;15.75;12.00;;;;;25.79;47.81;101338.84;5039234;28;48165;-37
2022/07/22 01:01:55;;;;;;;;;16.00;13.00;;;;;25.77;47.87;101340.81;5030245;28;45346;-38
2022/07/22 01:04:20;;;;;;;;;16.50;13.25;;;;;25.77;48.00;101341.66;5026713;28;45330;-36
2022/07/22 01:06:46;;;;;;;;;16.00;13.00;;;;;25.79;47.83;101343.38;5035598;28;45459;-36
2022/07/22 01:09:12;;;;;;;;;13.50;9.75;;;;;25.79;47.90;101338.00;5025818;28;71649;-35
2022/07/22 01:11:38;;;;;;;;;17.25;14.50;;;;;25.77;47.64;101341.66;5034957;28;45344;-36
2022/07/22 01:14:04;;;;;;;;;11.75;9.50;;;;;25.77;47.69;101336.28;5036791;28;45264;-36
2022/07/22 01:16:29;;;;;;;;;14.75;14.00;;;;;25.78;47.57;101342.50;5031740;28;45514;-36
2022/07/22 01:18:55;;;;;;;;;12.00;10.50;;;;;25.78;47.76;101334.44;5036973;28;45326;-36
2022/07/22 01:21:20;;;;;;;;;13.00;11.25;;;;;25.78;47.99;101339.81;5025680;28;66358;-37
2022/07/22 01:23:46;;;;;;;;;11.75;10.50;;;;;25.77;47.50;101336.28;5038293;28;45609;-36
2022/07/22 01:26:12;;;;;;;;;13.25;11.00;;;;;25.77;47.56;101332.75;5033178;28;45655;-37
2022/07/22 01:28:38;;;;;;;;;13.00;13.00;;;;;25.76;47.78;101331.91;5025656;28;47579;-37
2022/07/22 01:31:04;;;;;;;;;14.00;12.25;;;;;25.75;47.62;101330.19;5030762;28;45478;-37
2022/07/22 01:33:30;;;;;;;;;12.25;11.00;;;;;25.75;47.66;101332.03;5031667;28;45447;-37
2022/07/22 01:35:55;;;;;;;;;14.75;12.50;;;;;25.75;47.81;101326.69;5010852;28;45468;-38
2022/07/22 01:38:21;;;;;;;;;10.50;10.50;;;;;25.71;47.79;101327.88;5029994;28;54471;-36
2022/07/22 01:40:46;;;;;;;;;13.75;12.00;;;;;25.74;47.48;101327.63;5031344;28;45333;-37
2022/07/22 01:43:15;;;;;;;;;13.50;11.25;;;;;25.73;47.85;101334.84;5035692;28;57185;-36
2022/07/22 01:45:41;;;;;;;;;14.25;10.75;;;;;25.73;47.51;101331.31;5029158;28;45599;-36
2022/07/22 01:48:06;;;;;;;;;14.25;11.50;;;;;25.72;47.51;101333.13;5033299;28;46325;-36
2022/07/22 01:50:31;;;;;;;;;15.75;12.50;;;;;25.72;47.42;101333.13;5027807;28;67559;-37
2022/07/22 01:52:57;;;;;;;;;9.75;9.50;;;;;25.71;47.45;101334.13;5033643;28;46861;-36
2022/07/22 01:55:22;;;;;;;;;13.00;11.50;;;;;25.73;47.39;101331.31;5030766;28;45487;-36
2022/07/22 01:57:48;;;;;;;;;9.00;8.75;;;;;25.73;47.61;101331.31;5012653;28;47071;-36
2022/07/22 02:00:14;;;;;;;;;15.00;10.25;;;;;25.73;47.51;101331.31;5031881;28;45517;-36
2022/07/22 02:02:39;;;;;;;;;12.25;9.25;;;;;25.70;47.42;101326.19;5031230;28;45361;-36
2022/07/22 02:05:06;;;;;;;;;11.50;8.50;;;;;25.71;47.33;101319.84;5029766;28;71365;-36
2022/07/22 02:07:32;;;;;;;;;11.75;10.25;;;;;25.71;47.45;101314.47;5033302;28;46813;-36
2022/07/22 02:09:57;;;;;;;;;12.00;10.25;;;;;25.71;47.30;101312.66;5032568;28;45843;-36
2022/07/22 02:12:23;;;;;;;;;13.25;12.00;;;;;25.70;47.40;101316.31;5026029;28;58600;-36
2022/07/22 02:14:48;;;;;;;;;11.50;11.00;;;;;25.71;47.21;101320.72;5031342;28;45223;-36
2022/07/22 02:17:14;;;;;;;;;11.25;10.00;;;;;25.70;47.25;101319.00;5029242;28;45478;-36
2022/07/22 02:19:40;;;;;;;;;11.25;10.75;;;;;25.71;47.39;101319.84;5025327;28;47926;-36
2022/07/22 02:22:06;;;;;;;;;15.25;10.50;;;;;25.70;47.14;101323.50;5028608;28;45214;-36
2022/07/22 02:24:32;;;;;;;;;12.00;9.25;;;;;25.70;47.31;101315.47;5026752;28;45471;-36
2022/07/22 02:26:57;;;;;;;;;12.00;10.50;;;;;25.70;47.18;101321.69;5033005;28;46081;-36
2022/07/22 02:29:22;;;;;;;;;9.25;9.25;;;;;25.69;47.18;101320.00;5024770;28;63133;-36
2022/07/22 02:31:48;;;;;;;;;10.75;9.75;;;;;25.69;47.21;101321.81;5030646;28;63386;-36
2022/07/22 02:34:14;;;;;;;;;12.00;10.00;;;;;25.69;47.29;101327.16;5029945;28;65451;-36
2022/07/22 02:36:39;;;;;;;;;13.25;9.25;;;;;25.68;47.39;101317.44;5033421;28;66926;-36
2022/07/22 02:39:05;;;;;;;;;12.25;9.75;;;;;25.67;47.20;101323.75;5030119;28;70776;-36
2022/07/22 02:41:30;;;;;;;;;12.50;10.00;;;;;25.66;47.13;101312.19;5032085;28;45479;-36
2022/07/22 02:43:55;;;;;;;;;13.75;11.25;;;;;25.67;47.04;101321.06;5032765;28;63416;-36
2022/07/22 02:46:22;;;;;;;;;7.50;7.00;;;;;25.67;47.13;101321.06;5023567;28;45696;-37
2022/07/22 02:48:47;;;;;;;;;12.50;9.00;;;;;25.66;47.39;101316.72;5029280;28;45996;-37
2022/07/22 02:51:13;;;;;;;;;10.50;10.50;;;;;25.66;47.11;101322.06;5026229;28;45516;-36
2022/07/22 02:53:38;;;;;;;;;13.50;11.00;;;;;25.65;46.81;101315.00;5027445;28;69530;-36
2022/07/22 02:56:04;;;;;;;;;8.75;8.75;;;;;25.67;46.96;101323.75;5034461;28;56962;-37
2022/07/22 02:58:29;;;;;;;;;15.50;12.50;;;;;25.66;47.20;101320.25;5038131;28;45206;-36
2022/07/22 03:00:54;;;;;;;;;9.75;8.00;;;;;25.66;46.81;101312.19;5024571;28;45341;-37
2022/07/22 03:03:20;;;;;;;;;11.25;10.00;;;;;25.66;46.88;101325.59;5031017;28;45294;-36
2022/07/22 03:05:46;;;;;;;;;9.00;8.00;;;;;25.65;46.63;101309.63;5024862;28;45479;-36
2022/07/22 03:08:12;;;;;;;;;11.75;9.75;;;;;25.65;47.16;101307.78;5034338;28;45657;-37
2022/07/22 03:10:37;;;;;;;;;9.25;9.00;;;;;25.65;46.94;101307.78;5031641;28;51881;-36
2022/07/22 03:13:02;;;;;;;;;11.00;7.50;;;;;25.64;47.13;101311.47;5046356;28;68528;-37
2022/07/22 03:15:28;;;;;;;;;12.75;9.25;;;;;25.64;47.07;101310.59;5022938;28;62958;-36
2022/07/22 03:17:53;;;;;;;;;9.75;8.25;;;;;25.64;46.43;101306.09;5027787;28;70846;-37
2022/07/22 03:20:19;;;;;;;;;12.00;9.25;;;;;25.64;46.93;101303.44;5025058;28;53038;-37
2022/07/22 03:22:44;;;;;;;;;12.25;9.75;;;;;25.62;47.00;101305.38;5026843;28;55724;-36
2022/07/22 03:25:10;;;;;;;;;10.00;9.25;;;;;25.63;46.86;101300.88;5024958;28;55967;-37
2022/07/22 03:27:36;;;;;;;;;10.50;9.75;;;;;25.63;46.49;101301.72;5024664;28;45944;-36
2022/07/22 03:30:05;;;;;;;;;10.50;10.50;;;;;25.64;46.74;101299.88;5033871;28;45460;-36
2022/07/22 03:32:31;;;;;;;;;8.50;7.75;;;;;25.63;46.79;101304.41;5047606;28;45297;-36
2022/07/22 03:34:56;;;;;;;;;13.25;10.00;;;;;25.62;46.59;101297.34;5023747;28;67857;-36
2022/07/22 03:37:22;;;;;;;;;10.50;9.00;;;;;25.63;46.62;101298.19;5028659;28;53177;-37
2022/07/22 03:39:47;;;;;;;;;7.50;6.50;;;;;25.62;46.79;101307.19;5023397;28;63149;-36
2022/07/22 03:42:13;;;;;;;;;9.00;8.75;;;;;25.62;46.71;101304.50;5029224;28;45431;-36
2022/07/22 03:44:38;;;;;;;;;11.75;9.50;;;;;25.63;46.52;101301.72;5025614;28;50705;-36
2022/07/22 03:47:03;;;;;;;;;11.25;8.50;;;;;25.61;46.85;101306.34;5024290;28;67282;-36
2022/07/22 03:49:30;;;;;;;;;13.50;11.50;;;;;25.61;46.95;101314.41;5028556;28;61179;-36
2022/07/22 03:51:55;;;;;;;;;11.00;10.00;;;;;25.60;46.38;101307.31;5032822;28;45398;-36
2022/07/22 03:54:21;;;;;;;;;10.50;9.50;;;;;25.61;46.53;101311.72;5031821;28;70966;-36
2022/07/22 03:56:46;;;;;;;;;12.00;12.00;;;;;25.60;46.69;101310.00;5034587;28;64826;-36
2022/07/22 03:59:11;;;;;;;;;13.00;9.50;;;;;25.62;46.84;101309.88;5034001;28;45324;-36
2022/07/22 04:01:37;;;;;;;;;13.25;11.75;;;;;25.60;46.57;101301.97;5031028;28;61054;-36
2022/07/22 04:04:02;;;;;;;;;14.75;12.25;;;;;25.60;46.69;101296.59;5029084;28;46165;-36
2022/07/22 04:06:28;;;;;;;;;10.50;9.25;;;;;25.61;46.56;101310.88;5023320;28;45284;-35
2022/07/22 04:08:54;;;;;;;;;11.50;10.25;;;;;25.61;46.38;101301.00;5029905;28;45220;-36
2022/07/22 04:11:20;;;;;;;;;12.25;8.25;;;;;25.60;46.22;101301.13;5024798;28;45522;-36
2022/07/22 04:13:45;;;;;;;;;10.75;10.25;;;;;25.59;46.52;101300.28;5034467;28;45312;-36
2022/07/22 04:16:11;;;;;;;;;10.25;10.00;;;;;25.59;46.56;101300.28;5024797;28;45233;-36
2022/07/22 04:18:36;;;;;;;;;11.00;9.75;;;;;25.59;46.28;101302.94;5020122;28;57736;-36
2022/07/22 04:21:01;;;;;;;;;10.50;9.00;;;;;25.58;46.51;101299.41;5023130;28;45423;-36
2022/07/22 04:23:27;;;;;;;;;11.00;11.00;;;;;25.58;46.49;101290.50;5029299;28;46056;-36
2022/07/22 04:25:52;;;;;;;;;13.00;11.00;;;;;25.57;46.60;101295.03;5029442;28;61960;-36
2022/07/22 04:28:17;;;;;;;;;16.00;13.00;;;;;25.57;46.29;101295.03;5034752;28;51434;-36
2022/07/22 04:30:43;;;;;;;;;10.50;10.00;;;;;25.57;46.15;101289.66;5029002;28;45494;-36
2022/07/22 04:33:08;;;;;;;;;10.75;9.00;;;;;25.57;46.15;101288.84;5031199;28;55152;-36
2022/07/22 04:35:33;;;;;;;;;14.00;11.25;;;;;25.57;46.06;101284.31;5025004;28;66152;-36
2022/07/22 04:37:59;;;;;;;;;12.00;9.00;;;;;25.56;46.17;101282.59;5033421;28;59499;-36
2022/07/22 04:40:24;;;;;;;;;13.00;10.00;;;;;25.55;46.25;101283.59;5031037;28;69169;-36
2022/07/22 04:42:49;;;;;;;;;13.25;12.00;;;;;25.55;45.87;101290.75;5035053;28;71545;-36
2022/07/22 04:45:15;;;;;;;;;14.50;11.50;;;;;25.53;46.06;101287.34;5034081;28;45755;-36
2022/07/22 04:47:40;;;;;;;;;11.25;9.25;;;;;25.55;46.10;101288.06;5038499;28;45378;-36
2022/07/22 04:50:06;;;;;;;;;11.50;11.00;;;;;25.54;46.02;101281.03;5031446;28;62826;-36
2022/07/22 04:52:32;;;;;;;;;9.75;9.00;;;;;25.54;45.99;101283.72;5034617;28;46191;-36
2022/07/22 04:54:58;;;;;;;;;10.50;7.50;;;;;25.52;46.18;101286.50;5028313;28;67896;-36
2022/07/22 04:57:25;;;;;;;;;12.00;11.00;;;;;25.52;46.26;101285.66;5028978;28;45434;-36
2022/07/22 04:59:50;;;;;;;;;11.00;9.25;;;;;25.51;46.17;101284.78;5024643;28;45636;-36
2022/07/22 05:02:16;;;;;;;;;9.75;9.00;;;;;25.52;46.08;101275.78;5030014;28;70832;-36
2022/07/22 05:04:41;;;;;;;;;10.75;8.50;;;;;25.50;46.42;101264.34;5030721;28;45430;-36
2022/07/22 05:07:06;;;;;;;;;10.00;8.00;;;;;25.50;46.10;101269.72;5031432;28;65123;-36
2022/07/22 05:09:32;;;;;;;;;13.25;11.00;;;;;25.51;46.11;101267.88;5033432;28;45502;-36
2022/07/22 05:11:57;;;;;;;;;13.25;9.25;;;;;25.51;46.33;101275.91;5033409;28;65697;-36
2022/07/22 05:14:22;;;;;;;;;10.75;10.25;;;;;25.50;46.01;101276.91;5029190;28;50439;-36
2022/07/22 05:16:48;;;;;;;;;12.25;9.25;;;;;25.49;46.16;101275.19;5033647;28;56182;-37
2022/07/22 05:19:13;;;;;;;;;10.25;8.00;;;;;25.48;46.33;101270.78;5035341;28;45415;-37
2022/07/22 05:21:38;;;;;;;;;10.00;9.75;;;;;25.48;46.22;101274.34;5026570;28;45367;-36
2022/07/22 05:24:04;;;;;;;;;12.00;10.25;;;;;25.48;46.50;101274.34;5030102;28;63292;-36
2022/07/22 05:26:32;;;;;;;;;15.00;13.00;;;;;25.37;45.43;101271.69;5029591;28;45580;-47
2022/07/22 05:28:57;;;;;;;;;14.50;12.50;;;;;24.98;45.83;101269.38;5036702;28;45337;-46
2022/07/22 05:31:23;;;;;;;;;13.75;12.00;;;;;24.71;46.43;101267.06;5029765;28;57710;-46
2022/07/22 05:33:48;;;;;;;;;20.25;13.00;;;;;24.52;46.76;101272.09;5031579;28;45304;-48
2022/07/22 05:36:14;;;;;;;;;13.25;11.25;;;;;24.25;46.83;101260.72;5028880;28;60170;-45
2022/07/22 05:38:39;;;;;;;;;14.00;13.00;;;;;24.10;47.17;101269.06;5036192;28;63598;-48
2022/07/22 05:41:04;;;;;;;;;14.50;12.00;;;;;23.93;47.63;101268.53;5034925;28;62111;-48
2022/07/22 05:43:30;;;;;;;;;16.50;11.50;;;;;23.80;47.95;101262.38;5025277;28;57089;-47
2022/07/22 05:45:55;;;;;;;;;15.25;13.00;;;;;23.69;48.27;101263.16;5030372;28;48977;-48
2022/07/22 05:48:20;;;;;;;;;12.75;11.50;;;;;23.60;48.38;101266.50;5031864;28;58850;-47
2022/07/22 05:50:46;;;;;;;;;15.50;11.25;;;;;23.52;48.19;101267.06;5034901;28;64658;-46
2022/07/22 05:53:11;;;;;;;;;18.75;11.50;;;;;23.46;48.65;101263.03;5035769;28;45354;-48
2022/07/22 05:55:37;;;;;;;;;12.25;11.25;;;;;23.39;48.80;101269.81;5031688;28;60378;-45
2022/07/22 05:58:02;;;;;;;;;15.00;11.00;;;;;23.31;48.99;101265.00;5037382;28;45433;-50
2022/07/22 06:00:27;;;;;;;;;18.25;11.50;;;;;23.25;48.84;101262.78;5031236;28;65149;-50
2022/07/22 06:02:53;;;;;;;;;13.00;12.00;;;;;23.23;49.24;101263.84;5033767;28;70972;-47
2022/07/22 06:05:18;;;;;;;;;12.50;10.00;;;;;23.23;49.06;101255.81;5025383;28;51871;-47
2022/07/22 06:07:44;;;;;;;;;13.50;12.25;;;;;23.19;49.39;101246.34;5031861;28;45621;-47
2022/07/22 06:10:09;;;;;;;;;14.50;13.25;;;;;23.21;48.88;101247.94;5047625;28;56233;-45
2022/07/22 06:12:34;;;;;;;;;15.00;13.00;;;;;23.16;49.22;101251.91;5030757;28;45816;-48
2022/07/22 06:15:00;;;;;;;;;15.25;15.00;;;;;23.08;49.58;101252.47;5022916;28;51721;-49
2022/07/22 06:17:25;;;;;;;;;15.50;14.00;;;;;22.95;50.14;101260.47;5030496;28;70509;-45
2022/07/22 06:19:51;;;;;;;;;11.50;10.00;;;;;22.85;50.00;101278.06;5027270;28;46089;-49
2022/07/22 06:22:17;;;;;;;;;24.00;15.50;;;;;22.77;50.46;101273.28;5031019;28;62358;-48
2022/07/22 06:24:43;;;;;;;;;11.25;9.75;;;;;22.61;50.20;101265.50;5032653;28;45275;-51
2022/07/22 06:27:08;;;;;;;;;15.25;12.75;;;;;22.55;51.18;101265.91;5030331;28;45614;-47
2022/07/22 06:29:33;;;;;;;;;19.00;13.75;;;;;22.49;51.06;101256.53;5031952;28;59941;-45
2022/07/22 06:31:59;;;;;;;;;16.25;13.00;;;;;22.52;51.06;101260.78;5028440;28;69545;-46
2022/07/22 06:34:24;;;;;;;;;16.50;15.25;;;;;22.56;50.73;101262.28;5028756;28;65794;-45
2022/07/22 06:36:49;;;;;;;;;16.25;13.50;;;;;22.61;50.73;101254.84;5031692;28;45264;-46
2022/07/22 06:39:15;;;;;;;;;17.25;13.50;;;;;22.68;50.55;101255.22;5029908;28;54125;-44
2022/07/22 06:41:40;;;;;;;;;17.25;14.00;;;;;22.70;50.98;101267.53;5030143;28;61120;-48
2022/07/22 06:44:06;;;;;;;;;14.25;12.50;;;;;22.69;50.53;101260.47;5035045;28;64881;-48
2022/07/22 06:46:31;;;;;;;;;17.00;14.00;;;;;22.74;50.73;101261.00;5029729;28;45437;-45
2022/07/22 06:48:56;;;;;;;;;18.00;13.00;;;;;22.78;50.79;101266.13;5033662;28;65316;-47
2022/07/22 06:51:22;;;;;;;;;13.25;12.75;;;;;22.80;50.57;101256.19;5034815;28;45343;-45
2022/07/22 06:53:47;;;;;;;;;13.75;12.25;;;;;22.82;51.09;101271.13;5027567;28;45384;-42
2022/07/22 06:56:12;;;;;;;;;14.00;14.00;;;;;22.82;50.97;101273.78;5033600;28;66692;-43
2022/07/22 06:58:38;;;;;;;;;14.25;12.00;;;;;22.86;50.84;101279.78;5029932;28;69485;-42
2022/07/22 07:01:03;;;;;;;;;19.50;13.50;;;;;22.85;51.09;101278.91;5029769;28;70977;-41
2022/07/22 07:03:28;;;;;;;;;18.25;14.00;;;;;22.87;50.67;101273.47;5029411;28;45377;-42
2022/07/22 07:05:54;;;;;;;;;16.00;12.25;;;;;22.90;50.91;101273.28;5032669;28;64054;-44
2022/07/22 07:08:19;;;;;;;;;15.00;14.75;;;;;22.94;50.71;101278.28;5026977;28;45409;-45
2022/07/22 07:10:44;;;;;;;;;14.50;12.50;;;;;22.99;50.90;101283.28;5030373;28;62950;-46
2022/07/22 07:13:10;;;;;;;;;14.75;14.00;;;;;22.98;51.01;101273.56;5036155;28;64759;-42
2022/07/22 07:15:35;;;;;;;;;18.25;14.25;;;;;23.00;50.73;101278.81;5031295;28;45519;-46
2022/07/22 07:18:01;;;;;;;;;14.00;12.25;;;;;23.00;50.93;101260.13;5027001;28;45984;-47
2022/07/22 07:20:26;;;;;;;;;15.50;13.75;;;;;23.04;50.63;101256.28;5032070;28;45476;-44
2022/07/22 07:22:52;;;;;;;;;21.00;15.50;;;;;23.07;50.51;101248.94;5032182;28;45312;-43
2022/07/22 07:25:17;;;;;;;;;15.25;10.75;;;;;23.10;50.47;101246.03;5025209;28;45360;-43
2022/07/22 07:27:43;;;;;;;;;18.50;14.00;;;;;23.14;50.78;101249.34;5034969;28;46010;-44
2022/07/22 07:30:09;;;;;;;;;13.75;12.25;;;;;23.16;50.35;101254.56;5026630;28;66579;-46
2022/07/22 07:32:35;;;;;;;;;16.25;15.75;;;;;23.16;50.96;101249.22;5032241;28;45668;-47
2022/07/22 07:35:02;;;;;;;;;15.50;14.25;;;;;23.17;50.98;101241.09;5036029;28;45252;-45
2022/07/22 07:37:27;;;;;;;;;17.50;16.00;;;;;23.18;50.46;101248.16;5032032;28;45463;-44
2022/07/22 07:39:52;;;;;;;;;19.50;12.50;;;;;23.24;50.64;101241.53;5032452;28;62738;-37
2022/07/22 07:42:18;;;;;;;;;11.00;10.50;;;;;23.33;50.52;101248.88;5032436;28;45249;-36
2022/07/22 07:44:43;;;;;;;;;11.00;11.00;;;;;23.44;50.86;101250.75;5026543;28;45411;-36
2022/07/22 07:47:08;;;;;;;;;13.25;10.00;;;;;23.54;50.40;101249.13;5031092;28;62287;-36
2022/07/22 07:49:34;;;;;;;;;17.25;11.50;;;;;23.64;50.33;101255.50;5034078;28;72959;-36
2022/07/22 07:51:59;;;;;;;;;13.75;12.50;;;;;23.74;50.18;101258.31;5032456;28;45568;-36
2022/07/22 07:54:25;;;;;;;;;15.50;13.00;;;;;23.81;50.41;101251.56;5033596;28;45541;-36
2022/07/22 07:56:50;;;;;;;;;15.00;11.00;;;;;23.88;49.93;101266.19;5038935;28;61516;-35
2022/07/22 07:59:16;;;;;;;;;14.25;10.50;;;;;23.97;49.97;101272.66;5039713;28;45434;-35
2022/07/22 08:01:42;;;;;;;;;12.25;12.00;;;;;24.02;49.85;101265.16;5037087;28;47990;-35
2022/07/22 08:04:07;;;;;;;;;16.50;11.50;;;;;24.10;50.02;101269.94;5015919;28;45502;-35
2022/07/22 08:06:33;;;;;;;;;12.00;11.25;;;;;24.17;49.44;101268.50;5027881;28;45599;-35
2022/07/22 08:08:58;;;;;;;;;14.00;10.00;;;;;24.22;49.41;101257.44;5038877;28;45301;-36
2022/07/22 08:11:23;;;;;;;;;14.25;10.50;;;;;24.26;49.38;101257.09;5032614;28;65611;-35
2022/07/22 08:13:49;;;;;;;;;14.00;11.75;;;;;24.32;49.24;101253.09;5039751;28;45505;-36
2022/07/22 08:16:15;;;;;;;;;12.75;9.50;;;;;24.37;49.18;101250.91;5034822;28;61213;-36
2022/07/22 08:18:40;;;;;;;;;16.50;9.75;;;;;24.41;49.04;101244.34;5041052;28;45462;-36
2022/07/22 08:21:05;;;;;;;;;15.75;12.50;;;;;24.45;49.09;101244.97;5027883;28;52263;-36
2022/07/22 08:23:32;;;;;;;;;14.25;11.25;;;;;24.49;49.13;101238.41;5029993;28;55542;-36
2022/07/22 08:25:57;;;;;;;;;17.25;12.75;;;;;24.54;48.72;101246.09;5013331;28;46147;-45
2022/07/22 08:28:23;;;;;;;;;18.25;11.00;;;;;24.58;48.61;101244.91;5032063;28;45693;-36
2022/07/22 08:30:48;;;;;;;;;9.75;9.00;;;;;24.61;48.68;101240.16;5033110;28;62801;-36
2022/07/22 08:33:13;;;;;;;;;13.25;10.50;;;;;24.65;48.60;101238.09;5035837;28;45415;-36
2022/07/22 08:35:40;;;;;;;;;11.75;9.25;;;;;24.68;48.45;101239.69;5035360;28;46448;-36
2022/07/22 08:38:05;;;;;;;;;11.50;9.50;;;;;24.71;48.41;101242.13;5034199;28;45451;-36
2022/07/22 08:40:31;;;;;;;;;16.75;11.25;;;;;24.74;48.66;101244.56;5039200;28;45413;-35
2022/07/22 08:42:57;;;;;;;;;12.00;10.00;;;;;24.77;48.60;101241.63;5039138;28;45352;-36
2022/07/22 08:45:22;;;;;;;;;13.00;11.00;;;;;24.79;48.40;101243.22;5033573;28;45524;-36
2022/07/22 08:47:49;;;;;;;;;11.25;9.75;;;;;24.83;48.24;101238.47;5035297;28;45594;-36
2022/07/22 08:50:16;;;;;;;;;13.00;11.00;;;;;24.85;48.28;101233.00;5029939;28;45471;-36
2022/07/22 08:52:41;;;;;;;;;15.50;11.25;;;;;24.87;48.18;101221.19;5036751;28;45281;-35
2022/07/22 08:55:07;;;;;;;;;13.00;12.75;;;;;24.91;47.92;101221.78;5040380;28;45955;-36
2022/07/22 08:57:33;;;;;;;;;12.25;11.25;;;;;24.93;48.02;101209.13;5036948;28;45399;-36
2022/07/22 09:00:00;;;;;;;;;16.75;9.75;;;;;24.95;47.92;101191.97;5033589;28;45301;-36
2022/07/22 09:02:26;;;;;;;;;13.00;11.00;;;;;24.97;48.24;101181.16;5031647;28;46052;-36
2022/07/22 09:04:54;;;;;;;;;11.50;10.00;;;;;24.99;48.10;101169.31;5037377;28;46253;-36
2022/07/22 09:07:29;;;;;;;;;13.50;10.25;;;;;25.00;47.82;101138.91;5036648;28;45497;-35
2022/07/22 09:09:55;;;;;;;;;11.25;10.00;;;;;25.04;48.00;101128.78;5026287;28;45326;-35
2022/07/22 09:12:22;;;;;;;;;11.50;10.00;;;;;25.07;47.88;101127.69;5035259;28;45367;-35
2022/07/22 09:14:52;;;;;;;;;10.25;10.00;;;;;25.08;47.75;101135.59;5034657;28;45375;-35
2022/07/22 09:17:27;;;;;;;;;14.50;11.00;;;;;25.12;47.91;101162.97;5036059;28;45452;-35
2022/07/22 09:19:53;;;;;;;;;13.00;9.25;;;;;25.14;47.53;101180.63;5049771;28;45481;-35
2022/07/22 09:22:40;;;;;;;;;10.00;9.25;;;;;25.15;47.82;101190.34;5035394;28;45448;-35
2022/07/22 09:25:25;;;;;;;;;11.00;9.25;;;;;25.17;47.72;101204.47;5032443;28;46813;-35
2022/07/22 09:27:51;;;;;;;;;13.25;10.00;;;;;25.19;47.87;101207.88;5036433;28;45317;-35
2022/07/22 09:30:21;;;;;;;;;14.00;12.00;;;;;25.22;47.53;101222.00;5019595;28;45503;-35
2022/07/22 09:32:48;;;;;;;;;11.75;9.00;;;;;25.24;47.65;101220.06;5034603;28;45698;-35
2022/07/22 09:35:14;;;;;;;;;12.75;12.00;;;;;25.27;47.30;101220.69;5035826;28;45292;-35
2022/07/22 09:37:50;;;;;;;;;14.25;13.00;;;;;25.29;47.60;101220.56;5035116;28;45190;-36
2022/07/22 09:40:20;;;;;;;;;20.50;15.50;;;;;25.32;47.73;101220.28;5037314;28;45351;-36
2022/07/22 09:42:51;;;;;;;;;18.75;13.00;;;;;25.33;47.45;101212.13;5053641;28;45506;-35
2022/07/22 09:45:17;;;;;;;;;18.75;12.75;;;;;25.37;47.66;101192.16;5028280;28;45346;-35
2022/07/22 09:47:44;;;;;;;;;18.75;17.00;;;;;25.38;47.39;101185.81;5037880;28;45885;-36
2022/07/22 09:50:18;;;;;;;;;19.00;14.50;;;;;25.41;47.19;101183.84;5031731;28;45473;-35
2022/07/22 09:52:44;;;;;;;;;13.50;11.25;;;;;25.42;47.37;101185.56;5035347;28;45400;-35
2022/07/22 09:55:11;;;;;;;;;13.25;11.50;;;;;25.45;47.33;101198.72;5038856;28;45459;-35
2022/07/22 09:57:36;;;;;;;;;15.50;12.25;;;;;25.45;47.38;101202.25;5031028;28;45427;-35
2022/07/22 10:00:04;;;;;;;;;15.50;14.00;;;;;25.47;47.17;101207.47;5038958;28;45242;-34
2022/07/22 10:02:31;;;;;;;;;13.50;11.25;;;;;25.49;47.33;101202.84;5033006;28;45756;-35
2022/07/22 10:04:58;;;;;;;;;17.75;12.25;;;;;25.49;47.40;101201.00;5017410;28;46622;-35
2022/07/22 10:07:26;;;;;;;;;16.25;13.00;;;;;25.50;47.13;101205.41;5027150;28;61442;-35
2022/07/22 10:09:52;;;;;;;;;20.50;12.50;;;;;25.51;47.05;101191.00;5025867;28;46152;-35
2022/07/22 10:12:17;;;;;;;;;15.50;12.50;;;;;25.55;47.42;101196.94;5027689;28;45356;-35
2022/07/22 10:14:45;;;;;;;;;15.00;13.25;;;;;25.55;46.99;101199.63;5027870;28;48955;-35
2022/07/22 10:17:13;;;;;;;;;16.25;10.00;;;;;25.56;46.91;101193.31;5033104;28;45265;-35
2022/07/22 10:19:38;;;;;;;;;20.00;14.25;;;;;25.56;47.25;101191.47;5017321;28;45471;-35
2022/07/22 10:22:04;;;;;;;;;19.50;11.50;;;;;25.57;46.73;101185.13;5036419;28;45284;-35
2022/07/22 10:24:29;;;;;;;;;14.75;11.25;;;;;25.58;47.02;101183.31;5032523;28;70435;-35
2022/07/22 10:26:56;;;;;;;;;11.75;10.25;;;;;25.59;47.07;101179.66;5034262;28;60343;-35
2022/07/22 10:29:28;;;;;;;;;17.25;13.25;;;;;25.60;46.87;101180.50;5033440;28;45498;-35
2022/07/22 10:32:15;;;;;;;;;13.25;10.50;;;;;25.61;46.76;101174.19;5011912;28;45376;-35
2022/07/22 10:35:01;;;;;;;;;21.50;15.25;;;;;25.61;47.14;101169.66;5030788;28;45622;-36
2022/07/22 10:37:40;;;;;;;;;15.75;14.25;;;;;25.61;46.77;101164.28;5036766;28;45377;-35
2022/07/22 10:40:22;;;;;;;;;20.00;14.75;;;;;25.62;46.99;101166.00;5047401;28;45354;-35
2022/07/22 10:43:08;;;;;;;;;20.00;13.00;;;;;25.63;46.88;101164.16;5036451;28;45249;-35
2022/07/22 10:45:40;;;;;;;;;19.00;10.50;;;;;25.63;47.26;101159.66;5037656;28;46223;-36
2022/07/22 10:48:10;;;;;;;;;18.75;15.00;;;;;25.63;46.98;101148.94;5046250;28;45741;-35
2022/07/22 10:50:35;;;;;;;;;28.75;23.00;;;;;25.62;46.96;101120.44;5035088;28;45383;-35
2022/07/22 10:53:01;;;;;;;;;27.67;20.67;;;;;25.63;47.08;101089.13;5035761;28;45251;-35
2022/07/22 10:55:27;;;;;;;;;19.50;16.25;;;;;25.63;46.84;101073.88;5033853;28;46511;-35
2022/07/22 10:57:52;;;;;;;;;16.75;16.50;;;;;25.65;46.65;101063.88;5032633;28;54865;-35
2022/07/22 11:00:17;;;;;;;;;17.00;13.00;;;;;25.64;47.03;101055.97;5017280;28;50410;-36
2022/07/22 11:02:43;;;;;;;;;16.25;12.50;;;;;25.65;46.99;101055.00;5027975;28;59648;-36
2022/07/22 11:05:09;;;;;;;;;17.00;16.00;;;;;25.65;46.99;101055.00;5024165;28;45411;-35
2022/07/22 11:07:41;;;;;;;;;16.00;14.25;;;;;25.65;47.22;101047.78;5033575;28;45312;-36